createdAt,value
2023-01-06T00:02:02.832Z,9.30
2023-01-06T00:04:36.806Z,9.50
2023-01-06T00:07:10.876Z,9.40
2023-01-06T00:09:46.957Z,9.40
2023-01-06T00:12:21.227Z,9.50
2023-01-06T00:14:55.517Z,9.50
2023-01-06T00:17:29.467Z,9.50
2023-01-06T00:20:03.375Z,9.50
2023-01-06T00:22:37.735Z,9.60
2023-01-06T00:25:17.872Z,9.60
2023-01-06T00:27:51.863Z,9.60
2023-01-06T00:30:26.080Z,9.70
2023-01-06T00:33:00.041Z,9.80
2023-01-06T00:35:34.314Z,9.80
2023-01-06T00:38:08.260Z,9.90
2023-01-06T00:40:44.117Z,10.00
2023-01-06T00:43:17.839Z,10.00
2023-01-06T00:45:51.523Z,10.20
2023-01-06T00:48:25.630Z,10.30
2023-01-06T00:51:06.221Z,10.40
2023-01-06T00:53:40.392Z,10.80
2023-01-06T00:56:16.239Z,11.00
2023-01-06T00:58:50.186Z,10.90
2023-01-06T01:01:24.633Z,11.10
2023-01-06T01:03:58.917Z,11.30
2023-01-06T01:06:32.916Z,11.30
2023-01-06T01:09:07.151Z,11.70
2023-01-06T01:11:59.058Z,12.00
2023-01-06T01:14:33.496Z,12.20
2023-01-06T01:17:08.565Z,12.30
2023-01-06T01:19:43.291Z,12.70
2023-01-06T01:22:17.717Z,12.70
2023-01-06T01:24:51.772Z,13.00
2023-01-06T01:27:27.923Z,13.10
2023-01-06T01:30:02.104Z,13.50
2023-01-06T01:32:36.252Z,13.40
2023-01-06T01:35:10.631Z,13.20
2023-01-06T01:37:46.391Z,13.30
2023-01-06T01:40:20.562Z,13.60
2023-01-06T01:42:56.562Z,13.70
2023-01-06T01:45:31.670Z,14.20
2023-01-06T01:48:09.211Z,14.20
2023-01-06T01:50:48.175Z,14.20
2023-01-06T01:53:26.991Z,14.80
2023-01-06T01:56:03.110Z,14.80
2023-01-06T01:58:41.882Z,14.40
2023-01-06T02:01:15.953Z,14.10
2023-01-06T02:03:49.135Z,14.40
2023-01-06T02:06:25.683Z,14.30
2023-01-06T02:09:06.133Z,13.80
2023-01-06T02:11:41.636Z,14.20
2023-01-06T02:14:20.609Z,13.90
2023-01-06T02:17:07.871Z,13.80
2023-01-06T02:20:13.430Z,13.70
2023-01-06T02:23:14.531Z,13.50
2023-01-06T02:26:27.581Z,13.60
2023-01-06T02:29:29.566Z,14.20
2023-01-06T02:32:21.240Z,15.00
2023-01-06T02:35:05.823Z,15.30
2023-01-06T02:37:56.226Z,15.60
2023-01-06T02:40:45.887Z,15.80
2023-01-06T02:43:26.557Z,16.00
2023-01-06T02:46:11.292Z,16.20
2023-01-06T02:49:01.145Z,16.50
2023-01-06T02:51:48.051Z,16.30
2023-01-06T02:54:30.941Z,16.10
2023-01-06T02:57:10.862Z,15.80
2023-01-06T02:59:51.103Z,16.00
2023-01-06T03:02:25.923Z,15.90
2023-01-06T03:05:03.021Z,15.90
2023-01-06T03:07:37.489Z,15.70
2023-01-06T03:10:13.211Z,15.50
2023-01-06T03:12:55.488Z,15.30
2023-01-06T03:15:30.680Z,15.40
2023-01-06T03:18:06.057Z,15.60
2023-01-06T03:20:42.811Z,15.60
2023-01-06T03:23:18.790Z,16.00
2023-01-06T03:25:52.197Z,15.80
2023-01-06T03:28:29.745Z,15.80
2023-01-06T03:31:12.624Z,16.10
2023-01-06T03:33:56.802Z,16.50
2023-01-06T03:36:42.185Z,16.70
2023-01-06T03:39:21.933Z,16.10
2023-01-06T03:42:35.175Z,15.70
2023-01-06T03:45:27.728Z,15.80
2023-01-06T03:48:11.358Z,15.70
2023-01-06T03:50:50.509Z,15.90
2023-01-06T03:53:37.021Z,16.10
2023-01-06T03:56:19.814Z,16.30
2023-01-06T03:58:57.499Z,16.70
2023-01-06T04:01:34.710Z,17.00
2023-01-06T04:04:11.276Z,17.10
2023-01-06T04:06:48.898Z,16.70
2023-01-06T04:09:27.630Z,16.60
2023-01-06T04:12:18.115Z,16.40
2023-01-06T04:14:54.705Z,16.20
2023-01-06T04:17:31.121Z,16.20
2023-01-06T04:20:07.312Z,16.30
2023-01-06T04:22:44.516Z,16.00
2023-01-06T04:25:23.888Z,16.10
2023-01-06T04:27:59.711Z,16.20
2023-01-06T04:30:35.298Z,16.10
2023-01-06T04:33:11.344Z,16.30
2023-01-06T04:35:50.680Z,16.30
2023-01-06T04:38:28.900Z,16.10
2023-01-06T04:41:10.930Z,16.20
2023-01-06T04:43:46.653Z,16.20
2023-01-06T04:46:23.287Z,16.40
2023-01-06T04:48:59.152Z,16.60
2023-01-06T04:51:34.853Z,16.30
2023-01-06T04:54:12.165Z,16.20
2023-01-06T04:56:56.420Z,16.30
2023-01-06T04:59:34.393Z,16.20
2023-01-06T05:02:13.710Z,16.10
2023-01-06T05:04:48.509Z,16.20
2023-01-06T05:07:23.849Z,16.40
2023-01-06T05:09:58.655Z,16.50
2023-01-06T05:12:36.280Z,16.30
2023-01-06T05:15:11.332Z,16.50
2023-01-06T05:17:44.835Z,16.70
2023-01-06T05:20:18.871Z,16.60
2023-01-06T05:22:52.584Z,16.50
2023-01-06T05:25:27.138Z,16.40
2023-01-06T05:28:03.180Z,16.40
2023-01-06T05:30:46.383Z,16.20
2023-01-06T05:33:20.270Z,16.50
2023-01-06T05:36:01.397Z,16.50
2023-01-06T05:38:35.170Z,16.50
2023-01-06T05:41:10.259Z,16.60
2023-01-06T05:43:49.333Z,16.60
2023-01-06T05:46:24.382Z,16.60
2023-01-06T05:48:58.791Z,16.60
2023-01-06T05:51:35.215Z,16.60
2023-01-06T05:54:12.693Z,16.60
2023-01-06T05:56:48.033Z,16.50
2023-01-06T05:59:24.233Z,16.20
2023-01-06T06:01:59.367Z,16.20
2023-01-06T06:04:34.436Z,16.40
2023-01-06T06:07:09.034Z,16.50
2023-01-06T06:09:44.111Z,16.50
2023-01-06T06:12:19.845Z,16.70
2023-01-06T06:14:57.143Z,16.60
2023-01-06T06:17:32.903Z,16.60
2023-01-06T06:20:06.975Z,16.70
2023-01-06T06:22:41.297Z,16.70
2023-01-06T06:25:16.445Z,16.70
2023-01-06T06:27:53.095Z,16.60
2023-01-06T06:30:30.831Z,16.60
2023-01-06T06:33:06.380Z,16.70
2023-01-06T06:35:41.485Z,16.60
2023-01-06T06:38:16.830Z,16.80
2023-01-06T06:40:52.084Z,16.80
2023-01-06T06:43:28.296Z,16.90
2023-01-06T06:46:05.277Z,16.80
2023-01-06T06:48:41.059Z,17.00
2023-01-06T06:51:18.134Z,17.00
2023-01-06T06:53:53.508Z,17.00
2023-01-06T06:56:28.148Z,17.10
2023-01-06T06:59:04.555Z,17.10
2023-01-06T07:01:41.839Z,17.20
2023-01-06T07:04:16.876Z,17.10
2023-01-06T07:06:52.260Z,16.90
2023-01-06T07:09:27.441Z,16.90
2023-01-06T07:12:02.820Z,16.80
2023-01-06T07:14:38.323Z,17.00
2023-01-06T07:17:15.915Z,17.10
2023-01-06T07:19:51.080Z,16.80
2023-01-06T07:22:24.644Z,16.80
2023-01-06T07:24:58.848Z,16.80
2023-01-06T07:27:33.905Z,17.00
2023-01-06T07:30:10.568Z,16.80
2023-01-06T07:32:47.653Z,16.80
2023-01-06T07:35:22.363Z,16.80
2023-01-06T07:37:58.314Z,16.80
2023-01-06T07:40:34.957Z,16.80
2023-01-06T07:43:11.185Z,16.90
2023-01-06T07:45:46.449Z,16.90
2023-01-06T07:48:23.757Z,16.70
2023-01-06T07:50:58.830Z,16.50
2023-01-06T07:53:34.149Z,16.50
2023-01-06T07:56:10.491Z,16.70
2023-01-06T07:58:45.874Z,16.70
2023-01-06T08:01:22.303Z,16.70
2023-01-06T08:04:00.281Z,16.80
2023-01-06T08:06:36.460Z,16.70
2023-01-06T08:09:17.009Z,16.80
2023-01-06T08:11:52.366Z,16.80
2023-01-06T08:14:28.873Z,16.70
2023-01-06T08:17:04.218Z,16.70
2023-01-06T08:19:42.122Z,16.60
2023-01-06T08:22:18.057Z,16.50
2023-01-06T08:24:52.815Z,16.50
2023-01-06T08:27:27.873Z,16.50
2023-01-06T08:30:03.428Z,16.50
2023-01-06T08:32:40.774Z,16.30
2023-01-06T08:35:17.776Z,16.30
2023-01-06T08:37:52.976Z,16.40
2023-01-06T08:40:28.604Z,16.30
2023-01-06T08:43:04.127Z,16.30
2023-01-06T08:45:42.579Z,16.20
2023-01-06T08:48:17.925Z,16.20
2023-01-06T08:50:55.546Z,16.30
2023-01-06T08:53:31.353Z,16.20
2023-01-06T08:56:06.920Z,16.20
2023-01-06T08:58:41.677Z,16.20
2023-01-06T09:01:23.461Z,16.20
2023-01-06T09:03:58.776Z,16.10
2023-01-06T09:06:36.641Z,16.20
2023-01-06T09:09:13.026Z,16.10
2023-01-06T09:11:48.270Z,16.10
2023-01-06T09:14:24.030Z,16.00
2023-01-06T09:16:58.954Z,15.80
2023-01-06T09:19:34.160Z,15.90
2023-01-06T09:22:12.117Z,15.90
2023-01-06T09:24:47.331Z,15.80
2023-01-06T09:27:22.910Z,15.80
2023-01-06T09:29:58.492Z,15.70
2023-01-06T09:32:34.478Z,15.70
2023-01-06T09:35:09.860Z,15.70
2023-01-06T09:37:46.137Z,15.60
2023-01-06T09:40:27.845Z,15.60
2023-01-06T09:43:16.269Z,15.50
2023-01-06T09:45:55.965Z,15.50
2023-01-06T09:48:33.477Z,15.40
2023-01-06T09:51:10.548Z,15.40
2023-01-06T09:53:52.157Z,15.30
2023-01-06T09:56:29.637Z,15.20
2023-01-06T09:59:13.399Z,15.30
2023-01-06T10:01:53.393Z,15.30
2023-01-06T10:04:31.997Z,15.20
2023-01-06T10:07:19.321Z,15.10
2023-01-06T10:10:06.270Z,15.10
2023-01-06T10:12:52.249Z,15.00
2023-01-06T10:15:35.379Z,15.00
2023-01-06T10:18:23.967Z,14.90
2023-01-06T10:21:02.400Z,14.90
2023-01-06T10:23:58.090Z,14.80
2023-01-06T10:26:36.605Z,14.80
2023-01-06T10:29:18.092Z,14.80
2023-01-06T10:31:55.400Z,14.70
2023-01-06T10:34:32.824Z,14.70
2023-01-06T10:37:15.993Z,14.70
2023-01-06T10:39:54.916Z,14.70
2023-01-06T10:42:54.913Z,14.70
2023-01-06T10:45:33.022Z,14.60
2023-01-06T10:48:09.639Z,14.60
2023-01-06T10:50:44.350Z,14.60
2023-01-06T10:53:20.055Z,14.50
2023-01-06T10:55:58.907Z,14.60
2023-01-06T10:58:45.409Z,14.50
2023-01-06T11:01:26.903Z,14.50
2023-01-06T11:04:13.421Z,14.40
2023-01-06T11:06:51.154Z,14.40
2023-01-06T11:09:37.022Z,14.30
2023-01-06T11:12:21.279Z,14.30
2023-01-06T11:15:03.988Z,14.30
2023-01-06T11:17:41.020Z,14.30
2023-01-06T11:20:34.930Z,14.30
2023-01-06T11:23:25.946Z,14.20
2023-01-06T11:26:22.788Z,14.20
2023-01-06T11:29:00.344Z,14.20
2023-01-06T11:31:38.204Z,14.10
2023-01-06T11:34:26.063Z,14.00
2023-01-06T11:37:01.950Z,14.10
2023-01-06T11:39:41.399Z,14.10
2023-01-06T11:42:23.333Z,14.10
2023-01-06T11:44:58.811Z,14.10
2023-01-06T11:47:36.507Z,14.20
2023-01-06T11:50:23.063Z,14.10
2023-01-06T11:53:05.702Z,14.10
2023-01-06T11:55:41.205Z,14.00
2023-01-06T11:58:21.796Z,14.00
2023-01-06T12:01:00.487Z,13.90
2023-01-06T12:03:42.940Z,13.90
2023-01-06T12:06:31.106Z,13.90
2023-01-06T12:09:12.683Z,13.80
2023-01-06T12:11:53.444Z,13.80
2023-01-06T12:14:30.514Z,13.70
2023-01-06T12:17:16.192Z,13.70
2023-01-06T12:20:00.215Z,13.70
2023-01-06T12:22:42.342Z,13.70
2023-01-06T12:25:23.712Z,13.70
2023-01-06T12:28:06.721Z,13.70
2023-01-06T12:30:46.203Z,13.60
2023-01-06T12:33:25.329Z,13.50
2023-01-06T12:36:13.754Z,13.50
2023-01-06T12:38:59.925Z,13.50
2023-01-06T12:41:43.369Z,13.50
2023-01-06T12:44:32.625Z,13.50
2023-01-06T12:47:15.695Z,13.40
2023-01-06T12:50:05.117Z,13.40
2023-01-06T12:52:47.830Z,13.40
2023-01-06T12:55:27.236Z,13.30
2023-01-06T12:58:12.477Z,13.30
2023-01-06T13:00:58.848Z,13.30
2023-01-06T13:04:06.421Z,13.20
2023-01-06T13:07:00.057Z,13.20
2023-01-06T13:09:53.818Z,13.20
2023-01-06T13:12:50.521Z,13.10
2023-01-06T13:15:33.375Z,13.10
2023-01-06T13:18:19.111Z,13.10
2023-01-06T13:21:03.095Z,13.10
2023-01-06T13:23:55.456Z,13.10
2023-01-06T13:26:56.779Z,13.00
2023-01-06T13:30:00.199Z,12.90
2023-01-06T13:32:54.438Z,12.90
2023-01-06T13:35:58.896Z,12.80
2023-01-06T13:39:01.307Z,12.80
2023-01-06T13:41:55.765Z,12.80
2023-01-06T13:44:41.626Z,12.80
2023-01-06T13:47:21.235Z,12.80
2023-01-06T13:50:01.332Z,12.80
2023-01-06T13:52:38.259Z,12.80
2023-01-06T13:55:30.319Z,12.70
2023-01-06T13:58:43.159Z,12.70
2023-01-06T14:01:35.943Z,12.70
2023-01-06T14:04:47.099Z,12.60
2023-01-06T14:07:41.007Z,12.60
2023-01-06T14:10:38.056Z,12.60
2023-01-06T14:13:29.557Z,12.60
2023-01-06T14:16:09.796Z,12.60
2023-01-06T14:18:53.602Z,12.50
2023-01-06T14:21:35.035Z,12.40
2023-01-06T14:24:12.587Z,12.50
2023-01-06T14:27:00.139Z,12.40
2023-01-06T14:30:08.409Z,12.30
2023-01-06T14:33:05.194Z,12.30
2023-01-06T14:35:45.947Z,12.30
2023-01-06T14:38:30.532Z,12.20
2023-01-06T14:41:09.903Z,12.30
2023-01-06T14:43:52.845Z,12.20
2023-01-06T14:46:34.567Z,12.20
2023-01-06T14:49:21.011Z,12.10
2023-01-06T14:52:02.900Z,12.00
2023-01-06T14:54:43.775Z,12.00
2023-01-06T14:57:31.630Z,12.00
2023-01-06T15:00:19.703Z,12.00
2023-01-06T15:03:02.141Z,12.00
2023-01-06T15:05:42.095Z,11.90
2023-01-06T15:08:22.824Z,11.90
2023-01-06T15:10:58.564Z,11.90
2023-01-06T15:13:40.295Z,11.80
2023-01-06T15:16:24.278Z,11.80
2023-01-06T15:19:06.672Z,11.70
2023-01-06T15:21:46.831Z,11.70
2023-01-06T15:24:27.685Z,11.60
2023-01-06T15:27:09.330Z,11.60
2023-01-06T15:29:53.591Z,11.60
2023-01-06T15:32:31.829Z,11.60
2023-01-06T15:35:16.110Z,11.80
2023-01-06T15:37:53.187Z,11.70
2023-01-06T15:40:31.589Z,11.70
2023-01-06T15:43:07.380Z,11.70
2023-01-06T15:45:43.572Z,11.70
2023-01-06T15:48:26.487Z,11.80
2023-01-06T15:51:05.065Z,11.80
2023-01-06T15:53:42.731Z,11.70
2023-01-06T15:56:26.412Z,11.60
2023-01-06T15:59:03.935Z,11.50
2023-01-06T16:01:43.791Z,11.40
2023-01-06T16:04:22.598Z,11.30
2023-01-06T16:07:03.073Z,11.30
2023-01-06T16:09:40.696Z,11.20
2023-01-06T16:12:24.064Z,11.20
2023-01-06T16:15:12.073Z,11.20
2023-01-06T16:17:51.708Z,11.30
2023-01-06T16:20:29.842Z,11.30
2023-01-06T16:23:18.518Z,11.30
2023-01-06T16:26:13.108Z,11.30
2023-01-06T16:28:57.125Z,11.20
2023-01-06T16:31:39.813Z,11.10
2023-01-06T16:34:29.393Z,11.20
2023-01-06T16:37:08.476Z,11.00
2023-01-06T16:39:54.602Z,11.00
2023-01-06T16:42:44.464Z,10.90
2023-01-06T16:45:39.738Z,10.90
2023-01-06T16:48:25.706Z,10.70
2023-01-06T16:51:19.765Z,10.60
2023-01-06T16:53:54.641Z,10.70
2023-01-06T16:56:38.185Z,10.60
2023-01-06T16:59:23.899Z,10.60
2023-01-06T17:02:02.475Z,10.60
2023-01-06T17:04:43.569Z,10.60
2023-01-06T17:07:49.046Z,10.60
2023-01-06T17:10:34.514Z,10.70
2023-01-06T17:13:33.710Z,10.60
2023-01-06T17:16:19.143Z,10.60
2023-01-06T17:19:04.179Z,10.60
2023-01-06T17:21:48.804Z,10.50
2023-01-06T17:24:25.239Z,10.50
2023-01-06T17:27:18.644Z,10.50
2023-01-06T17:30:30.250Z,10.60
2023-01-06T17:33:09.061Z,10.50
2023-01-06T17:35:44.506Z,10.40
2023-01-06T17:38:24.139Z,10.50
2023-01-06T17:40:58.336Z,10.40
2023-01-06T17:43:35.039Z,10.40
2023-01-06T17:46:23.847Z,10.40
2023-01-06T17:49:06.175Z,10.30
2023-01-06T17:51:41.126Z,10.20
2023-01-06T17:54:37.564Z,10.30
2023-01-06T17:57:19.916Z,10.20
2023-01-06T17:59:56.725Z,10.10
2023-01-06T18:02:44.297Z,10.10
2023-01-06T18:06:08.605Z,10.10
2023-01-06T18:08:42.596Z,10.20
2023-01-06T18:11:33.604Z,10.10
2023-01-06T18:14:22.876Z,10.10
2023-01-06T18:16:58.273Z,10.10
2023-01-06T18:19:38.758Z,10.10
2023-01-06T18:22:19.996Z,10.10
2023-01-06T18:24:54.393Z,10.10
2023-01-06T18:27:29.265Z,10.00
2023-01-06T18:30:14.708Z,10.00
2023-01-06T18:32:48.716Z,10.10
2023-01-06T18:35:25.907Z,10.10
2023-01-06T18:38:03.846Z,10.00
2023-01-06T18:40:37.935Z,10.00
2023-01-06T18:43:29.127Z,10.00
2023-01-06T18:46:06.065Z,10.00
2023-01-06T18:48:39.531Z,9.90
2023-01-06T18:51:20.527Z,9.80
2023-01-06T18:53:58.800Z,9.80
2023-01-06T18:56:32.183Z,9.80
2023-01-06T18:59:05.576Z,9.80
2023-01-06T19:01:45.239Z,9.70
2023-01-06T19:04:27.238Z,9.80
2023-01-06T19:07:04.499Z,9.90
2023-01-06T19:09:40.427Z,9.80
2023-01-06T19:12:27.914Z,9.80
2023-01-06T19:15:04.265Z,9.90
2023-01-06T19:17:42.200Z,9.90
2023-01-06T19:20:19.908Z,9.90
2023-01-06T19:22:56.720Z,9.70
2023-01-06T19:25:36.200Z,9.70
2023-01-06T19:28:16.247Z,9.70
2023-01-06T19:30:53.573Z,9.60
2023-01-06T19:33:46.037Z,9.50
2023-01-06T19:36:42.096Z,9.50
2023-01-06T19:39:33.741Z,9.50
2023-01-06T19:42:19.829Z,9.50
2023-01-06T19:44:56.244Z,9.40
2023-01-06T19:47:30.921Z,9.50
2023-01-06T19:50:19.685Z,9.50
2023-01-06T19:52:53.681Z,9.20
2023-01-06T19:55:30.536Z,9.30
2023-01-06T19:58:05.806Z,9.40
2023-01-06T20:00:49.305Z,9.30
2023-01-06T20:03:32.068Z,9.20
2023-01-06T20:06:05.589Z,9.20
2023-01-06T20:08:38.819Z,9.30
2023-01-06T20:11:14.407Z,9.50
2023-01-06T20:13:47.492Z,9.50
2023-01-06T20:16:20.355Z,9.60
2023-01-06T20:18:53.986Z,9.50
2023-01-06T20:21:26.790Z,9.50
2023-01-06T20:24:00.043Z,9.50
2023-01-06T20:26:35.916Z,9.50
2023-01-06T20:29:09.518Z,9.50
2023-01-06T20:31:42.779Z,9.50
2023-01-06T20:34:15.639Z,9.30
2023-01-06T20:36:48.628Z,9.30
2023-01-06T20:39:21.488Z,9.30
2023-01-06T20:41:56.328Z,9.40
2023-01-06T20:44:29.899Z,9.40
2023-01-06T20:47:03.107Z,9.50
2023-01-06T20:49:36.662Z,9.60
2023-01-06T20:52:10.706Z,9.60
2023-01-06T20:54:44.157Z,9.50
2023-01-06T20:57:19.935Z,9.60
2023-01-06T20:59:53.464Z,9.60
2023-01-06T21:02:27.157Z,9.50
2023-01-06T21:05:01.147Z,9.60
2023-01-06T21:07:35.351Z,9.60
2023-01-06T21:10:09.367Z,9.60
2023-01-06T21:12:44.499Z,9.60
2023-01-06T21:15:17.989Z,9.60
2023-01-06T21:17:51.120Z,9.60
2023-01-06T21:20:24.341Z,9.60
2023-01-06T21:22:57.594Z,9.50
2023-01-06T21:25:31.087Z,9.30
2023-01-06T21:28:06.232Z,9.30
2023-01-06T21:30:40.216Z,9.40
2023-01-06T21:33:14.555Z,9.40
2023-01-06T21:35:47.952Z,9.50
2023-01-06T21:38:20.903Z,9.50
2023-01-06T21:40:53.929Z,9.60
2023-01-06T21:43:27.554Z,9.60
2023-01-06T21:46:01.111Z,9.60
2023-01-06T21:48:34.430Z,9.70
2023-01-06T21:51:07.183Z,9.60
2023-01-06T21:53:40.308Z,9.60
2023-01-06T21:56:13.497Z,9.50
2023-01-06T21:58:48.721Z,9.50
2023-01-06T22:01:23.331Z,9.60
2023-01-06T22:03:57.616Z,9.70
2023-01-06T22:06:31.710Z,9.70
2023-01-06T22:09:10.154Z,9.70
2023-01-06T22:11:45.607Z,9.70
2023-01-06T22:14:22.034Z,9.70
2023-01-06T22:16:55.866Z,9.60
2023-01-06T22:19:30.756Z,9.50
2023-01-06T22:22:04.999Z,9.50
2023-01-06T22:24:39.141Z,9.60
2023-01-06T22:27:12.869Z,9.60
2023-01-06T22:29:48.636Z,9.70
2023-01-06T22:32:22.155Z,9.80
2023-01-06T22:34:56.026Z,9.80
2023-01-06T22:37:29.178Z,9.80
2023-01-06T22:40:02.541Z,9.80
2023-01-06T22:42:35.457Z,9.90
2023-01-06T22:45:12.577Z,9.90
2023-01-06T22:47:46.273Z,9.90
2023-01-06T22:50:19.701Z,9.90
2023-01-06T22:52:52.447Z,9.80
2023-01-06T22:55:25.583Z,9.90
2023-01-06T22:57:58.417Z,10.00
2023-01-06T23:00:33.860Z,9.90
2023-01-06T23:03:07.225Z,9.80
2023-01-06T23:05:40.729Z,9.90
2023-01-06T23:08:14.308Z,9.90
2023-01-06T23:10:47.521Z,9.80
2023-01-06T23:13:21.429Z,9.80
2023-01-06T23:16:04.358Z,9.80
2023-01-06T23:18:38.082Z,9.90
2023-01-06T23:21:13.222Z,9.90
2023-01-06T23:23:47.246Z,10.00
2023-01-06T23:26:22.521Z,10.10
2023-01-06T23:28:56.970Z,10.10
2023-01-06T23:31:34.523Z,10.10
2023-01-06T23:34:09.542Z,10.20
2023-01-06T23:36:42.912Z,10.20
2023-01-06T23:39:18.136Z,10.00
2023-01-06T23:41:51.287Z,10.00
2023-01-06T23:44:25.067Z,10.00
2023-01-06T23:47:00.495Z,9.90
2023-01-06T23:49:34.393Z,9.70
2023-01-06T23:52:07.729Z,9.80
2023-01-06T23:54:41.051Z,9.90
2023-01-06T23:57:13.961Z,9.90
2023-01-06T23:59:47.996Z,9.80
